createdAt,value
2023-05-07T00:00:34.898Z,13.30
2023-05-07T00:02:36.701Z,13.30
2023-05-07T00:04:39.912Z,13.30
2023-05-07T00:06:41.592Z,13.31
2023-05-07T00:08:43.121Z,13.31
2023-05-07T00:10:44.770Z,13.31
2023-05-07T00:12:46.433Z,13.31
2023-05-07T00:14:48.284Z,13.31
2023-05-07T00:16:50.104Z,13.31
2023-05-07T00:18:51.721Z,13.31
2023-05-07T00:20:53.384Z,13.30
2023-05-07T00:22:54.919Z,13.31
2023-05-07T00:24:56.648Z,13.32
2023-05-07T00:26:59.127Z,13.31
2023-05-07T00:29:00.824Z,13.31
2023-05-07T00:31:02.389Z,13.32
2023-05-07T00:33:03.974Z,13.34
2023-05-07T00:35:06.669Z,13.33
2023-05-07T00:37:11.125Z,13.34
2023-05-07T00:39:12.613Z,13.34
2023-05-07T00:41:14.209Z,13.32
2023-05-07T00:43:16.049Z,13.33
2023-05-07T00:45:18.158Z,13.34
2023-05-07T00:47:19.749Z,13.36
2023-05-07T00:49:21.663Z,13.35
2023-05-07T00:51:24.635Z,13.36
2023-05-07T00:53:26.371Z,13.38
2023-05-07T00:55:28.154Z,13.38
2023-05-07T00:57:29.971Z,13.36
2023-05-07T00:59:34.824Z,13.37
2023-05-07T01:01:38.695Z,13.36
2023-05-07T01:03:40.881Z,13.37
2023-05-07T01:05:44.310Z,13.37
2023-05-07T01:10:13.765Z,13.38
2023-05-07T01:12:16.328Z,13.36
2023-05-07T01:14:18.905Z,13.36
2023-05-07T01:16:21.144Z,13.38
2023-05-07T01:18:23.199Z,13.38
2023-05-07T01:20:25.200Z,13.40
2023-05-07T01:22:35.063Z,13.41
2023-05-07T01:24:38.422Z,13.41
2023-05-07T01:26:40.915Z,13.40
2023-05-07T01:28:42.464Z,13.41
2023-05-07T01:30:49.198Z,13.39
2023-05-07T01:32:53.227Z,13.40
2023-05-07T01:34:56.228Z,13.39
2023-05-07T01:36:59.626Z,13.35
2023-05-07T01:39:03.266Z,13.35
2023-05-07T01:41:05.036Z,13.34
2023-05-07T01:43:07.501Z,13.36
2023-05-07T01:45:09.423Z,13.36
2023-05-07T01:47:11.632Z,13.36
2023-05-07T01:49:13.343Z,13.36
2023-05-07T01:51:14.900Z,13.32
2023-05-07T01:53:16.733Z,13.35
2023-05-07T01:55:18.430Z,13.36
2023-05-07T01:57:20.331Z,13.33
2023-05-07T01:59:21.849Z,13.31
2023-05-07T02:01:23.440Z,13.30
2023-05-07T02:03:25.126Z,13.31
2023-05-07T02:05:26.808Z,13.31
2023-05-07T02:07:29.071Z,13.30
2023-05-07T02:09:31.097Z,13.32
2023-05-07T02:11:32.623Z,13.31
2023-05-07T02:13:35.704Z,13.29
2023-05-07T02:15:37.314Z,13.27
2023-05-07T02:18:06.119Z,13.25
2023-05-07T02:20:14.210Z,13.22
2023-05-07T02:22:16.485Z,13.20
2023-05-07T02:24:18.019Z,13.18
2023-05-07T02:26:19.691Z,13.17
2023-05-07T02:28:21.207Z,13.14
2023-05-07T02:30:22.880Z,13.12
2023-05-07T02:32:24.569Z,13.10
2023-05-07T02:34:26.126Z,13.07
2023-05-07T02:36:27.754Z,13.07
2023-05-07T02:38:29.268Z,13.01
2023-05-07T02:40:31.041Z,13.02
2023-05-07T02:42:32.614Z,12.99
2023-05-07T02:44:34.226Z,12.97
2023-05-07T02:46:35.820Z,12.94
2023-05-07T02:48:37.465Z,12.92
2023-05-07T02:50:38.985Z,12.91
2023-05-07T02:52:40.603Z,12.89
2023-05-07T02:54:44.847Z,12.86
2023-05-07T02:56:46.363Z,12.85
2023-05-07T02:58:47.885Z,12.88
2023-05-07T03:00:49.586Z,12.82
2023-05-07T03:02:51.261Z,12.82
2023-05-07T03:04:52.835Z,12.78
2023-05-07T03:06:54.248Z,12.77
2023-05-07T03:08:55.790Z,12.79
2023-05-07T03:10:57.527Z,12.79
2023-05-07T03:12:59.084Z,12.80
2023-05-07T03:15:00.652Z,12.79
2023-05-07T03:17:02.463Z,12.79
2023-05-07T03:19:04.054Z,12.79
2023-05-07T03:21:05.640Z,12.79
2023-05-07T03:23:07.248Z,12.77
2023-05-07T03:25:09.931Z,12.77
2023-05-07T03:27:11.414Z,12.77
2023-05-07T03:29:12.961Z,12.77
2023-05-07T03:31:14.658Z,12.77
2023-05-07T03:33:16.531Z,12.76
2023-05-07T03:35:18.173Z,12.78
2023-05-07T03:37:20.212Z,12.77
2023-05-07T03:39:21.712Z,12.75
2023-05-07T03:41:23.304Z,12.76
2023-05-07T03:43:24.847Z,12.76
2023-05-07T03:45:26.832Z,12.78
2023-05-07T03:47:28.490Z,12.76
2023-05-07T03:49:30.078Z,12.77
2023-05-07T03:51:31.670Z,12.78
2023-05-07T03:53:33.206Z,12.79
2023-05-07T03:55:34.860Z,12.80
2023-05-07T03:57:36.404Z,12.77
2023-05-07T03:59:37.946Z,12.79
2023-05-07T04:01:39.732Z,12.81
2023-05-07T04:03:41.508Z,12.81
2023-05-07T04:05:43.102Z,12.80
2023-05-07T04:07:45.464Z,12.81
2023-05-07T04:09:47.148Z,12.81
2023-05-07T04:11:48.731Z,12.80
2023-05-07T04:13:50.591Z,12.82
2023-05-07T04:15:52.977Z,12.82
2023-05-07T04:17:54.495Z,12.85
2023-05-07T04:19:56.153Z,12.84
2023-05-07T04:21:57.702Z,12.86
2023-05-07T04:23:59.414Z,12.86
2023-05-07T04:26:01.885Z,12.87
2023-05-07T04:28:03.554Z,12.92
2023-05-07T04:30:05.693Z,12.91
2023-05-07T04:32:07.328Z,12.92
2023-05-07T04:34:10.109Z,12.96
2023-05-07T04:36:11.888Z,12.95
2023-05-07T04:38:13.529Z,12.96
2023-05-07T04:40:15.283Z,12.99
2023-05-07T04:42:17.994Z,13.03
2023-05-07T04:44:19.588Z,13.04
2023-05-07T04:46:21.274Z,13.04
2023-05-07T04:48:22.930Z,13.08
2023-05-07T04:50:25.466Z,13.11
2023-05-07T04:52:27.652Z,13.15
2023-05-07T04:54:29.194Z,13.19
2023-05-07T04:56:31.040Z,13.26
2023-05-07T04:58:33.029Z,13.31
2023-05-07T05:00:34.750Z,13.38
2023-05-07T05:02:36.312Z,13.43
2023-05-07T05:04:39.579Z,13.45
2023-05-07T05:06:41.157Z,13.54
2023-05-07T05:08:42.753Z,13.58
2023-05-07T05:10:44.538Z,13.64
2023-05-07T05:12:46.208Z,13.68
2023-05-07T05:14:48.191Z,13.75
2023-05-07T05:16:49.733Z,13.80
2023-05-07T05:18:53.114Z,13.80
2023-05-07T05:20:54.627Z,13.85
2023-05-07T05:22:56.201Z,13.89
2023-05-07T05:24:57.851Z,13.93
2023-05-07T05:27:02.280Z,13.96
2023-05-07T05:29:03.847Z,13.99
2023-05-07T05:31:06.398Z,14.03
2023-05-07T05:33:08.052Z,14.04
2023-05-07T05:35:09.724Z,14.04
2023-05-07T05:37:11.562Z,14.00
2023-05-07T05:39:13.728Z,14.08
2023-05-07T05:41:15.327Z,14.10
2023-05-07T05:43:16.887Z,14.16
2023-05-07T05:45:18.757Z,14.23
2023-05-07T05:47:20.581Z,14.24
2023-05-07T05:49:22.859Z,14.29
2023-05-07T05:51:24.427Z,14.29
2023-05-07T05:53:26.215Z,14.35
2023-05-07T05:55:27.887Z,14.39
2023-05-07T05:57:29.445Z,14.48
2023-05-07T05:59:31.492Z,14.47
2023-05-07T06:01:33.431Z,14.56
2023-05-07T06:03:35.004Z,14.60
2023-05-07T06:05:36.552Z,14.64
2023-05-07T06:07:38.094Z,14.67
2023-05-07T06:09:39.638Z,14.76
2023-05-07T06:11:42.073Z,14.88
2023-05-07T06:13:43.565Z,14.94
2023-05-07T06:15:45.095Z,15.06
2023-05-07T06:17:46.684Z,15.13
2023-05-07T06:19:48.261Z,15.32
2023-05-07T06:21:50.063Z,15.45
2023-05-07T06:23:53.229Z,15.57
2023-05-07T06:25:54.766Z,15.53
2023-05-07T06:27:56.295Z,15.71
2023-05-07T06:29:57.903Z,15.82
2023-05-07T06:32:07.973Z,15.85
2023-05-07T06:34:09.543Z,15.88
2023-05-07T06:36:11.504Z,15.98
2023-05-07T06:38:13.390Z,15.99
2023-05-07T06:40:14.915Z,16.07
2023-05-07T06:42:16.503Z,16.03
2023-05-07T06:44:18.056Z,16.05
2023-05-07T06:46:19.624Z,16.01
2023-05-07T06:48:21.381Z,16.16
2023-05-07T06:50:22.898Z,16.14
2023-05-07T06:52:24.433Z,16.12
2023-05-07T06:54:25.959Z,16.18
2023-05-07T06:56:27.499Z,16.25
2023-05-07T06:58:29.017Z,16.27
2023-05-07T07:00:31.694Z,16.42
2023-05-07T07:02:33.260Z,16.30
2023-05-07T07:04:34.859Z,16.39
2023-05-07T07:06:36.440Z,16.49
2023-05-07T07:08:39.798Z,16.46
2023-05-07T07:10:41.351Z,16.46
2023-05-07T07:12:42.870Z,16.64
2023-05-07T07:14:44.402Z,16.62
2023-05-07T07:16:47.793Z,16.74
2023-05-07T07:18:49.414Z,16.76
2023-05-07T07:20:51.134Z,16.88
2023-05-07T07:22:52.746Z,16.83
2023-05-07T07:24:54.315Z,16.98
2023-05-07T07:26:56.486Z,17.03
2023-05-07T07:28:58.033Z,17.13
2023-05-07T07:30:59.699Z,17.11
2023-05-07T07:33:03.559Z,17.10
2023-05-07T07:35:05.781Z,17.03
2023-05-07T07:37:07.347Z,16.93
2023-05-07T07:39:08.925Z,17.22
2023-05-07T07:41:10.763Z,17.32
2023-05-07T07:43:12.289Z,17.41
2023-05-07T07:45:13.824Z,17.43
2023-05-07T07:47:15.613Z,17.44
2023-05-07T07:49:20.126Z,17.59
2023-05-07T07:51:21.653Z,17.53
2023-05-07T07:53:23.190Z,17.63
2023-05-07T07:55:24.776Z,17.79
2023-05-07T07:57:26.310Z,17.83
2023-05-07T07:59:27.929Z,17.81
2023-05-07T08:01:31.359Z,17.76
2023-05-07T08:03:33.744Z,17.90
2023-05-07T08:05:35.459Z,17.98
2023-05-07T08:07:37.113Z,18.03
2023-05-07T08:09:40.829Z,18.12
2023-05-07T08:11:42.561Z,18.16
2023-05-07T08:13:44.362Z,18.29
2023-05-07T08:15:46.022Z,18.30
2023-05-07T08:17:47.711Z,18.23
2023-05-07T08:19:49.622Z,18.20
2023-05-07T08:21:51.668Z,18.30
2023-05-07T08:23:58.063Z,18.37
2023-05-07T08:25:59.932Z,18.38
2023-05-07T08:28:02.013Z,18.45
2023-05-07T08:30:04.489Z,18.51
2023-05-07T08:32:06.084Z,18.51
2023-05-07T08:34:09.522Z,18.54
2023-05-07T08:36:11.707Z,18.58
2023-05-07T08:38:13.227Z,18.68
2023-05-07T08:40:14.958Z,18.87
2023-05-07T08:42:17.899Z,18.91
2023-05-07T08:44:23.608Z,19.00
2023-05-07T08:46:26.810Z,19.08
2023-05-07T08:48:30.729Z,19.10
2023-05-07T08:50:32.319Z,19.26
2023-05-07T08:52:33.914Z,19.43
2023-05-07T08:54:38.482Z,19.56
2023-05-07T08:56:40.855Z,19.65
2023-05-07T08:58:43.835Z,19.83
2023-05-07T09:00:45.528Z,19.91
2023-05-07T09:02:47.291Z,20.07
2023-05-07T09:04:48.937Z,20.14
2023-05-07T09:06:52.212Z,20.29
2023-05-07T09:08:55.404Z,20.35
2023-05-07T09:10:56.965Z,20.34
2023-05-07T09:12:58.560Z,20.39
2023-05-07T09:15:00.730Z,20.68
2023-05-07T09:17:02.355Z,20.49
2023-05-07T09:19:04.098Z,20.49
2023-05-07T09:21:05.713Z,20.73
2023-05-07T09:23:09.009Z,20.83
2023-05-07T09:25:11.099Z,20.58
2023-05-07T09:27:14.454Z,20.67
2023-05-07T09:29:17.974Z,20.76
2023-05-07T09:31:21.411Z,21.01
2023-05-07T09:33:28.350Z,20.99
2023-05-07T09:35:30.445Z,20.94
2023-05-07T09:37:32.306Z,20.81
2023-05-07T09:39:47.469Z,20.57
2023-05-07T09:41:55.463Z,20.68
2023-05-07T09:43:57.249Z,20.51
2023-05-07T09:46:00.088Z,20.55
2023-05-07T09:48:05.947Z,20.60
2023-05-07T09:50:09.626Z,20.63
2023-05-07T09:52:11.615Z,20.54
2023-05-07T09:54:13.506Z,20.92
2023-05-07T09:56:18.848Z,20.96
2023-05-07T09:58:21.305Z,21.08
2023-05-07T10:00:24.044Z,21.21
2023-05-07T10:02:31.284Z,21.50
2023-05-07T10:04:33.275Z,21.77
2023-05-07T10:06:36.575Z,21.45
2023-05-07T10:08:38.706Z,21.26
2023-05-07T10:10:41.482Z,21.21
2023-05-07T10:12:43.015Z,21.47
2023-05-07T10:14:46.352Z,21.73
2023-05-07T10:16:48.768Z,21.74
2023-05-07T10:18:51.043Z,21.66
2023-05-07T10:20:55.220Z,21.57
2023-05-07T10:22:59.517Z,21.59
2023-05-07T10:25:05.724Z,21.68
2023-05-07T10:27:15.461Z,21.75
2023-05-07T10:29:25.954Z,21.86
2023-05-07T10:31:27.517Z,21.93
2023-05-07T10:33:31.912Z,22.03
2023-05-07T10:35:39.981Z,21.88
2023-05-07T10:37:42.463Z,21.91
2023-05-07T10:39:43.997Z,21.92
2023-05-07T10:41:45.599Z,21.80
2023-05-07T10:43:47.793Z,22.30
2023-05-07T10:46:25.994Z,22.20
2023-05-07T10:48:29.405Z,22.55
2023-05-07T10:50:32.015Z,22.72
2023-05-07T10:52:33.625Z,22.70
2023-05-07T10:54:37.686Z,22.60
2023-05-07T10:56:40.937Z,22.81
2023-05-07T10:58:42.458Z,22.97
2023-05-07T11:00:45.408Z,22.74
2023-05-07T11:03:02.212Z,22.92
2023-05-07T11:05:23.268Z,22.69
2023-05-07T11:07:29.527Z,22.44
2023-05-07T11:09:53.089Z,22.91
2023-05-07T11:11:56.916Z,23.11
2023-05-07T11:13:58.481Z,23.21
2023-05-07T11:16:00.506Z,23.25
2023-05-07T11:18:02.385Z,23.34
2023-05-07T11:20:05.686Z,23.70
2023-05-07T11:22:32.998Z,23.38
2023-05-07T11:24:41.772Z,23.73
2023-05-07T11:26:45.737Z,23.61
2023-05-07T11:28:47.813Z,23.98
2023-05-07T11:30:49.528Z,23.83
2023-05-07T11:32:51.156Z,23.85
2023-05-07T11:34:53.885Z,23.90
2023-05-07T11:36:56.865Z,23.40
2023-05-07T11:38:58.432Z,23.73
2023-05-07T11:41:01.775Z,23.84
2023-05-07T11:43:12.021Z,23.73
2023-05-07T11:45:25.400Z,23.70
2023-05-07T11:47:27.222Z,23.39
2023-05-07T11:49:28.854Z,23.60
2023-05-07T11:51:31.833Z,23.82
2023-05-07T11:53:43.852Z,23.98
2023-05-07T11:55:45.891Z,23.53
2023-05-07T11:57:47.730Z,23.71
2023-05-07T11:59:49.297Z,23.86
2023-05-07T12:01:51.047Z,23.75
2023-05-07T12:03:55.615Z,23.31
2023-05-07T12:05:57.245Z,23.45
2023-05-07T12:07:59.092Z,23.39
2023-05-07T12:10:00.778Z,22.93
2023-05-07T12:12:05.774Z,22.74
2023-05-07T12:14:09.439Z,22.76
2023-05-07T12:16:12.769Z,22.77
2023-05-07T12:18:14.655Z,22.65
2023-05-07T12:20:16.422Z,22.40
2023-05-07T12:22:18.877Z,22.32
2023-05-07T12:24:21.987Z,22.36
2023-05-07T12:26:23.715Z,22.23
2023-05-07T12:28:25.406Z,22.26
2023-05-07T12:30:29.489Z,22.27
2023-05-07T12:32:31.164Z,22.30
2023-05-07T12:34:32.940Z,22.14
2023-05-07T12:36:39.565Z,22.29
2023-05-07T12:38:44.256Z,22.70
2023-05-07T12:40:55.523Z,22.75
2023-05-07T12:42:58.480Z,22.59
2023-05-07T12:45:01.521Z,23.05
2023-05-07T12:47:03.516Z,22.87
2023-05-07T12:49:05.631Z,22.65
2023-05-07T12:51:08.765Z,22.75
2023-05-07T12:53:13.430Z,22.76
2023-05-07T12:55:16.565Z,22.76
2023-05-07T12:57:21.299Z,23.15
2023-05-07T12:59:34.160Z,22.95
2023-05-07T13:01:35.778Z,22.87
2023-05-07T13:03:39.136Z,22.78
2023-05-07T13:05:41.255Z,22.78
2023-05-07T13:07:53.986Z,22.73
2023-05-07T13:09:55.380Z,22.56
2023-05-07T13:11:56.973Z,22.54
2023-05-07T13:13:58.496Z,22.38
2023-05-07T13:16:01.378Z,22.10
2023-05-07T13:18:03.757Z,22.08
2023-05-07T13:20:06.766Z,21.99
2023-05-07T13:22:08.324Z,21.93
2023-05-07T13:24:09.963Z,21.86
2023-05-07T13:26:22.528Z,21.67
2023-05-07T13:28:27.719Z,21.45
2023-05-07T13:30:29.260Z,21.35
2023-05-07T13:32:31.380Z,21.53
2023-05-07T13:34:32.976Z,21.47
2023-05-07T13:36:38.052Z,21.38
2023-05-07T13:38:40.948Z,21.31
2023-05-07T13:40:42.493Z,21.22
2023-05-07T13:42:44.031Z,21.13
2023-05-07T13:44:46.338Z,21.04
2023-05-07T13:46:47.953Z,21.09
2023-05-07T13:48:49.509Z,20.96
2023-05-07T13:50:51.065Z,21.02
2023-05-07T13:52:52.592Z,20.94
2023-05-07T13:54:54.189Z,20.97
2023-05-07T13:56:55.705Z,20.99
2023-05-07T13:59:00.512Z,21.07
2023-05-07T14:01:02.490Z,20.97
2023-05-07T14:03:06.119Z,21.11
2023-05-07T14:05:08.621Z,21.13
2023-05-07T14:07:10.198Z,21.15
2023-05-07T14:09:14.215Z,21.17
2023-05-07T14:11:15.827Z,21.12
2023-05-07T14:13:17.449Z,21.09
2023-05-07T14:15:19.404Z,21.04
2023-05-07T14:17:21.298Z,21.01
2023-05-07T14:21:49.772Z,20.92
2023-05-07T14:23:52.067Z,20.84
2023-05-07T14:25:54.489Z,20.76
2023-05-07T14:27:56.019Z,20.66
2023-05-07T14:29:57.550Z,20.51
2023-05-07T14:31:59.050Z,20.50
2023-05-07T14:34:00.690Z,20.44
2023-05-07T14:36:02.306Z,20.32
2023-05-07T14:38:03.854Z,20.19
2023-05-07T14:40:06.220Z,20.13
2023-05-07T14:42:08.878Z,19.99
2023-05-07T14:44:10.445Z,19.91
2023-05-07T14:46:12.003Z,19.89
2023-05-07T14:48:16.174Z,19.84
2023-05-07T14:50:17.875Z,19.82
2023-05-07T14:52:19.658Z,19.77
2023-05-07T14:54:21.204Z,19.68
2023-05-07T14:56:23.080Z,19.73
2023-05-07T14:58:24.617Z,19.65
2023-05-07T15:00:26.179Z,19.68
2023-05-07T15:02:27.957Z,19.67
2023-05-07T15:04:29.578Z,19.58
2023-05-07T15:06:31.914Z,19.63
2023-05-07T15:08:33.497Z,19.63
2023-05-07T15:10:42.232Z,19.56
2023-05-07T15:12:44.032Z,19.57
2023-05-07T15:14:45.556Z,19.47
2023-05-07T15:16:47.163Z,19.50
2023-05-07T15:18:49.577Z,19.45
2023-05-07T15:20:51.255Z,19.43
2023-05-07T15:22:52.962Z,19.41
2023-05-07T15:24:56.075Z,19.44
2023-05-07T15:26:59.198Z,19.50
2023-05-07T15:29:00.802Z,19.49
2023-05-07T15:31:02.353Z,19.48
2023-05-07T15:33:04.523Z,19.47
2023-05-07T15:35:06.688Z,19.49
2023-05-07T15:37:08.205Z,19.43
2023-05-07T15:39:10.024Z,19.45
2023-05-07T15:41:11.710Z,19.48
2023-05-07T15:43:13.465Z,19.46
2023-05-07T15:45:15.171Z,19.41
2023-05-07T15:47:16.861Z,19.37
2023-05-07T15:49:18.555Z,19.38
2023-05-07T15:51:21.054Z,19.38
2023-05-07T15:53:22.655Z,19.42
2023-05-07T15:55:24.595Z,19.35
2023-05-07T15:57:26.375Z,19.31
2023-05-07T15:59:28.098Z,19.23
2023-05-07T16:01:29.691Z,19.13
2023-05-07T16:03:32.629Z,19.13
2023-05-07T16:05:34.388Z,19.11
2023-05-07T16:07:36.416Z,19.12
2023-05-07T16:09:37.957Z,19.08
2023-05-07T16:11:40.103Z,19.08
2023-05-07T16:13:42.043Z,18.99
2023-05-07T16:15:43.688Z,18.88
2023-05-07T16:17:48.827Z,18.85
2023-05-07T16:19:51.606Z,18.85
2023-05-07T16:21:53.188Z,18.79
2023-05-07T16:23:55.238Z,18.80
2023-05-07T16:25:57.007Z,18.75
2023-05-07T16:27:58.819Z,18.71
2023-05-07T16:30:00.785Z,18.68
2023-05-07T16:32:02.434Z,18.67
2023-05-07T16:34:04.847Z,18.64
2023-05-07T16:36:07.094Z,18.56
2023-05-07T16:38:11.451Z,18.55
2023-05-07T16:40:13.368Z,18.62
2023-05-07T16:42:14.902Z,18.57
2023-05-07T16:44:20.137Z,18.56
2023-05-07T16:46:22.025Z,18.56
2023-05-07T16:48:23.792Z,18.52
2023-05-07T16:50:25.331Z,18.50
2023-05-07T16:52:29.070Z,18.49
2023-05-07T16:54:31.027Z,18.46
2023-05-07T16:56:33.103Z,18.43
2023-05-07T16:58:35.267Z,18.40
2023-05-07T17:00:49.085Z,18.40
2023-05-07T17:02:53.196Z,18.31
2023-05-07T17:04:54.924Z,18.17
2023-05-07T17:06:56.984Z,18.17
2023-05-07T17:08:58.618Z,18.16
2023-05-07T17:11:00.130Z,18.17
2023-05-07T17:13:01.751Z,18.10
2023-05-07T17:15:03.616Z,17.98
2023-05-07T17:17:05.241Z,18.02
2023-05-07T17:19:06.811Z,17.96
2023-05-07T17:21:08.404Z,17.91
2023-05-07T17:23:09.932Z,17.88
2023-05-07T17:25:12.954Z,17.80
2023-05-07T17:27:15.806Z,17.75
2023-05-07T17:29:17.492Z,17.75
2023-05-07T17:31:19.099Z,17.75
2023-05-07T17:33:22.372Z,17.67
2023-05-07T17:35:24.184Z,17.61
2023-05-07T17:37:26.379Z,17.61
2023-05-07T17:39:27.873Z,17.57
2023-05-07T17:41:29.399Z,17.55
2023-05-07T17:43:31.343Z,17.47
2023-05-07T17:45:33.100Z,17.51
2023-05-07T17:47:35.645Z,17.44
2023-05-07T17:49:37.468Z,17.35
2023-05-07T17:51:52.670Z,17.31
2023-05-07T17:53:56.844Z,17.27
2023-05-07T17:55:58.433Z,17.26
2023-05-07T17:58:00.411Z,17.20
2023-05-07T18:00:04.522Z,17.21
2023-05-07T18:02:06.704Z,17.16
2023-05-07T18:04:08.947Z,17.13
2023-05-07T18:06:10.530Z,17.11
2023-05-07T18:08:12.295Z,17.08
2023-05-07T18:10:14.219Z,17.03
2023-05-07T18:12:15.982Z,17.03
2023-05-07T18:14:17.679Z,16.98
2023-05-07T18:16:19.916Z,16.89
2023-05-07T18:18:21.605Z,16.88
2023-05-07T18:20:23.150Z,16.84
2023-05-07T18:22:24.757Z,16.84
2023-05-07T18:24:27.269Z,16.79
2023-05-07T18:26:28.850Z,16.77
2023-05-07T18:28:30.453Z,16.73
2023-05-07T18:30:31.999Z,16.72
2023-05-07T18:32:33.757Z,16.67
2023-05-07T18:34:35.432Z,16.66
2023-05-07T18:36:36.955Z,16.64
2023-05-07T18:38:38.974Z,16.60
2023-05-07T18:40:44.152Z,16.55
2023-05-07T18:42:45.731Z,16.56
2023-05-07T18:44:47.288Z,16.51
2023-05-07T18:46:49.095Z,16.52
2023-05-07T18:48:50.842Z,16.43
2023-05-07T18:50:52.660Z,16.44
2023-05-07T18:52:54.313Z,16.37
2023-05-07T18:54:56.203Z,16.31
2023-05-07T18:56:57.940Z,16.33
2023-05-07T18:58:59.448Z,16.31
2023-05-07T19:01:01.789Z,16.32
2023-05-07T19:03:03.476Z,16.27
2023-05-07T19:05:05.621Z,16.30
2023-05-07T19:07:07.258Z,16.24
2023-05-07T19:09:08.897Z,16.20
2023-05-07T19:11:10.649Z,16.15
2023-05-07T19:13:12.616Z,16.10
2023-05-07T19:15:18.932Z,16.13
2023-05-07T19:17:23.043Z,16.10
2023-05-07T19:19:24.862Z,16.07
2023-05-07T19:21:28.557Z,16.05
2023-05-07T19:23:30.678Z,16.03
2023-05-07T19:25:32.285Z,16.02
2023-05-07T19:27:34.132Z,15.99
2023-05-07T19:29:36.011Z,15.97
2023-05-07T19:31:37.691Z,15.94
2023-05-07T19:33:39.236Z,15.92
2023-05-07T19:35:40.801Z,15.88
2023-05-07T19:37:42.389Z,15.88
2023-05-07T19:39:44.050Z,15.85
2023-05-07T19:41:45.855Z,15.85
2023-05-07T19:43:47.423Z,15.78
2023-05-07T19:45:50.051Z,15.80
2023-05-07T19:47:52.011Z,15.77
2023-05-07T19:49:53.672Z,15.70
2023-05-07T19:51:55.293Z,15.74
2023-05-07T19:53:56.829Z,15.68
2023-05-07T19:56:09.220Z,15.68
2023-05-07T19:58:10.890Z,15.65
2023-05-07T20:00:13.222Z,15.58
2023-05-07T20:02:15.505Z,15.56
2023-05-07T20:04:17.239Z,15.57
2023-05-07T20:06:19.413Z,15.53
2023-05-07T20:08:21.101Z,15.51
2023-05-07T20:10:23.470Z,15.47
2023-05-07T20:12:25.076Z,15.43
2023-05-07T20:14:27.397Z,15.38
2023-05-07T20:16:28.989Z,15.35
2023-05-07T20:18:30.639Z,15.34
2023-05-07T20:20:32.303Z,15.32
2023-05-07T20:22:33.819Z,15.26
2023-05-07T20:24:39.500Z,15.20
2023-05-07T20:26:41.320Z,15.12
2023-05-07T20:28:43.006Z,15.15
2023-05-07T20:30:44.624Z,15.17
2023-05-07T20:32:46.733Z,15.12
2023-05-07T20:34:48.314Z,15.08
2023-05-07T20:36:49.958Z,15.04
2023-05-07T20:38:52.460Z,15.01
2023-05-07T20:40:53.982Z,14.99
2023-05-07T20:42:55.507Z,14.96
2023-05-07T20:44:57.062Z,14.93
2023-05-07T20:46:58.929Z,14.89
2023-05-07T20:49:00.485Z,14.87
2023-05-07T20:51:02.840Z,14.86
2023-05-07T20:53:04.398Z,14.83
2023-05-07T20:55:06.688Z,14.80
2023-05-07T20:57:08.183Z,14.81
2023-05-07T20:59:09.928Z,14.75
2023-05-07T21:01:11.559Z,14.75
2023-05-07T21:03:13.109Z,14.73
2023-05-07T21:05:14.654Z,14.71
2023-05-07T21:07:16.149Z,14.69
2023-05-07T21:09:17.905Z,14.69
2023-05-07T21:11:19.416Z,14.66
2023-05-07T21:13:21.310Z,14.64
2023-05-07T21:15:23.015Z,14.64
2023-05-07T21:17:24.600Z,14.62
2023-05-07T21:19:26.590Z,14.60
2023-05-07T21:21:28.155Z,14.56
2023-05-07T21:23:29.676Z,14.55
2023-05-07T21:25:31.598Z,14.50
2023-05-07T21:27:33.147Z,14.49
2023-05-07T21:29:34.734Z,14.48
2023-05-07T21:31:36.377Z,14.50
2023-05-07T21:33:38.102Z,14.45
2023-05-07T21:35:39.691Z,14.44
2023-05-07T21:37:41.471Z,14.40
2023-05-07T21:39:42.955Z,14.42
2023-05-07T21:41:44.545Z,14.41
2023-05-07T21:43:46.059Z,14.42
2023-05-07T21:45:47.621Z,14.41
2023-05-07T21:47:49.210Z,14.36
2023-05-07T21:49:50.824Z,14.36
2023-05-07T21:51:52.379Z,14.38
2023-05-07T21:53:53.924Z,14.36
2023-05-07T21:55:55.718Z,14.37
2023-05-07T21:58:04.855Z,14.36
2023-05-07T22:00:08.633Z,14.34
2023-05-07T22:02:10.173Z,14.34
2023-05-07T22:04:11.829Z,14.32
2023-05-07T22:06:13.407Z,14.27
2023-05-07T22:08:15.022Z,14.26
2023-05-07T22:10:21.791Z,14.25
2023-05-07T22:12:23.379Z,14.22
2023-05-07T22:14:24.941Z,14.17
2023-05-07T22:16:26.818Z,14.16
2023-05-07T22:18:28.397Z,14.15
2023-05-07T22:20:29.969Z,14.17
2023-05-07T22:22:31.507Z,14.12
2023-05-07T22:24:33.101Z,14.11
2023-05-07T22:26:37.667Z,14.06
2023-05-07T22:28:40.551Z,14.08
2023-05-07T22:30:42.224Z,13.99
2023-05-07T22:32:44.314Z,13.99
2023-05-07T22:34:45.936Z,14.02
2023-05-07T22:36:49.805Z,14.00
2023-05-07T22:38:51.381Z,13.97
2023-05-07T22:40:52.920Z,13.99
2023-05-07T22:42:54.486Z,13.96
2023-05-07T22:44:56.389Z,13.94
2023-05-07T22:46:58.007Z,13.96
2023-05-07T22:48:59.524Z,13.96
2023-05-07T22:51:01.205Z,13.94
2023-05-07T22:53:02.730Z,13.92
2023-05-07T22:55:04.639Z,13.90
2023-05-07T22:57:06.287Z,13.89
2023-05-07T22:59:07.891Z,13.87
2023-05-07T23:01:13.838Z,13.87
2023-05-07T23:03:15.732Z,13.88
2023-05-07T23:05:17.517Z,13.88
2023-05-07T23:07:19.040Z,13.88
2023-05-07T23:09:20.560Z,13.87
2023-05-07T23:11:22.381Z,13.84
2023-05-07T23:13:24.072Z,13.84
2023-05-07T23:15:25.705Z,13.85
2023-05-07T23:17:27.403Z,13.86
2023-05-07T23:19:29.089Z,13.85
2023-05-07T23:21:30.640Z,13.87
2023-05-07T23:23:34.610Z,13.86
2023-05-07T23:25:36.605Z,13.85
2023-05-07T23:27:38.187Z,13.80
2023-05-07T23:29:39.732Z,13.81
2023-05-07T23:31:41.297Z,13.82
2023-05-07T23:33:42.837Z,13.79
2023-05-07T23:35:44.360Z,13.80
2023-05-07T23:37:45.864Z,13.80
2023-05-07T23:39:48.026Z,13.76
2023-05-07T23:41:49.561Z,13.78
2023-05-07T23:43:51.225Z,13.79
2023-05-07T23:45:52.915Z,13.78
2023-05-07T23:47:54.469Z,13.79
2023-05-07T23:49:56.158Z,13.76
2023-05-07T23:51:57.697Z,13.75
2023-05-07T23:53:59.181Z,13.76
2023-05-07T23:56:00.672Z,13.75
2023-05-07T23:58:02.252Z,13.77
